Flight Information

DEPARTURE
YAKIMA, WA
Elevation:
1098
Runways:
4/22 - 3835x150 - ASPH-P
9/27 - 7604x150 - ASPH-E
ATIS:
125.25
Clearance Delivery:
121.9
Ground:
121.9
Tower:
YAKIMA TOW ER 133.25
DESTINATION
,
Elevation:
TPA:
1000 (est.)


6626.7 NM67° True-19° Var47° HDG

Flight Plan:
(click to file on line)

1. Type
2. Aircraft Identification
3. Aircraft Type / Special Equipment
4. True Airspeed
kts
5. Departure Airport
(ICAO code)
6. Arriving Airport
(ICAO code)
7. Cruising Altitude
ft
8. Alternate Airport
(ICAO code)
9. Route of Flight
10. Remarks


00:00:00 Departure ATIS: Destination ATIS:

Clearance Limit:
Route:
Altitude: Expect in minutes
Frequency:
Transponder: (7500 Hijack / 7600 Lost Comms / 7700 Emergency)


KYKM 010853Z AUTO 00000KT 10SM FEW110 03/M05 A2998 RMK AO2 SLP156 T00331050 52002
Time: 2020-04-01T08:53:00Z
1585732574
Winds: calm
Visibility: 10.0 sm
Clouds (AGL): FEW 11000
Temperature: 3.3 C
Dew Point: -5.0 C
Pressure: 29.97933 in Hgbr


Notes:

Data extracted from FAA Digital Chart Supplement. Effective: 0901Z Thursday, Mar 26, 2020 to 0901Z Thursday, May 21, 2020
Current ATIS data is provided courtisy of PilotEdge.